Time;durP1;ratioP1;P1;durP2;ratioP2;P2;SDS_P1;SDS_P2;PMS_P1;PMS_P2;Temp;Humidity;BMP_temperature;BMP_pressure;BME280_temperature;BME280_humidity;BME280_pressure;Samples;Min_cycle;Max_cycle;Signal;HPM_P1;HPM_P2
2023/02/17 00:01:16;;;;;;;77.47;50.27;;;;;;;;;;5053572;28;20915;-68
2023/02/17 00:03:46;;;;;;;84.33;51.57;;;;;;;;;;5053275;28;20484;-68
2023/02/17 00:06:14;;;;;;;68.10;47.30;;;;;;;;;;5053804;28;20421;-68
2023/02/17 00:08:41;;;;;;;76.50;50.60;;;;;;;;;;5053780;28;20433;-69
2023/02/17 00:11:09;;;;;;;68.43;49.10;;;;;;;;;;5054162;28;20473;-69
2023/02/17 00:13:36;;;;;;;76.77;51.80;;;;;;;;;;5053508;28;20431;-69
2023/02/17 00:16:08;;;;;;;72.40;50.97;;;;;;;;;;5053790;28;20437;-68
2023/02/17 00:18:35;;;;;;;70.80;46.67;;;;;;;;;;5053843;28;20430;-68
2023/02/17 00:21:11;;;;;;;73.53;47.65;;;;;;;;;;5053118;28;20201;-69
2023/02/17 00:23:38;;;;;;;68.27;45.27;;;;;;;;;;5053607;28;20182;-68
2023/02/17 00:26:06;;;;;;;78.77;48.77;;;;;;;;;;5053420;28;20460;-68
2023/02/17 00:28:33;;;;;;;67.43;46.17;;;;;;;;;;5053124;28;20434;-69
2023/02/17 00:31:00;;;;;;;67.13;46.63;;;;;;;;;;5053273;28;20441;-68
2023/02/17 00:33:29;;;;;;;66.37;43.33;;;;;;;;;;5053625;28;20464;-68
2023/02/17 00:35:56;;;;;;;69.67;44.33;;;;;;;;;;5052965;28;20429;-69
2023/02/17 00:38:23;;;;;;;70.73;47.60;;;;;;;;;;5053325;28;20441;-68
2023/02/17 00:40:50;;;;;;;69.17;46.97;;;;;;;;;;5052965;28;20430;-68
2023/02/17 00:43:17;;;;;;;65.30;46.10;;;;;;;;;;5052939;28;20440;-68
2023/02/17 00:45:44;;;;;;;63.27;45.40;;;;;;;;;;5052763;28;20433;-68
2023/02/17 00:48:11;;;;;;;58.93;40.40;;;;;;;;;;5052707;28;20919;-68
2023/02/17 00:50:40;;;;;;;62.03;43.27;;;;;;;;;;5052854;28;20438;-68
2023/02/17 00:53:07;;;;;;;54.97;39.90;;;;;;;;;;5053397;28;20560;-68
2023/02/17 00:55:34;;;;;;;63.57;42.87;;;;;;;;;;5052913;28;20441;-68
2023/02/17 00:58:01;;;;;;;56.40;40.93;;;;;;;;;;5052931;28;20438;-68
2023/02/17 01:00:29;;;;;;;60.23;41.90;;;;;;;;;;5053106;28;20436;-68
2023/02/17 01:02:56;;;;;;;56.00;39.97;;;;;;;;;;5055161;28;20437;-68
2023/02/17 01:05:23;;;;;;;57.70;38.97;;;;;;;;;;5057052;28;20497;-68
2023/02/17 01:07:51;;;;;;;56.10;41.50;;;;;;;;;;5056891;28;20436;-68
2023/02/17 01:10:19;;;;;;;57.17;39.50;;;;;;;;;;5056972;28;20929;-68
2023/02/17 01:12:46;;;;;;;54.70;39.40;;;;;;;;;;5057064;28;20813;-68
2023/02/17 01:15:14;;;;;;;56.83;43.77;;;;;;;;;;5057172;28;20455;-68
2023/02/17 01:17:41;;;;;;;58.27;39.50;;;;;;;;;;5056579;28;20934;-68
2023/02/17 01:20:08;;;;;;;56.90;44.80;;;;;;;;;;5056753;28;20936;-68
2023/02/17 01:22:35;;;;;;;60.33;43.90;;;;;;;;;;5057025;28;20440;-68
2023/02/17 01:25:05;;;;;;;60.50;43.93;;;;;;;;;;5056732;28;20430;-68
2023/02/17 01:27:32;;;;;;;60.47;42.97;;;;;;;;;;5056826;28;20453;-68
2023/02/17 01:29:59;;;;;;;52.80;39.97;;;;;;;;;;5056609;28;20437;-67
2023/02/17 01:32:26;;;;;;;60.93;44.50;;;;;;;;;;5056515;28;20480;-67
2023/02/17 01:34:53;;;;;;;68.40;42.23;;;;;;;;;;5056229;28;20449;-68
2023/02/17 01:37:20;;;;;;;55.03;41.50;;;;;;;;;;5056496;28;20440;-68
2023/02/17 01:39:48;;;;;;;61.23;41.70;;;;;;;;;;5056068;28;20444;-68
2023/02/17 01:42:18;;;;;;;51.13;38.83;;;;;;;;;;5056473;28;20845;-68
2023/02/17 01:45:04;;;;;;;50.33;38.93;;;;;;;;;;5055741;28;20761;-69
2023/02/17 01:47:31;;;;;;;52.30;37.50;;;;;;;;;;5056157;28;20550;-68
2023/02/17 01:49:59;;;;;;;51.78;36.03;;;;;;;;;;5055216;28;20440;-69
2023/02/17 01:52:26;;;;;;;44.67;35.07;;;;;;;;;;5055361;28;20211;-68
2023/02/17 01:54:56;;;;;;;43.33;33.90;;;;;;;;;;5055399;28;20941;-69
2023/02/17 01:57:26;;;;;;;44.00;32.00;;;;;;;;;;5055381;28;20449;-68
2023/02/17 01:59:53;;;;;;;43.60;32.33;;;;;;;;;;5056079;28;20431;-68
2023/02/17 02:02:21;;;;;;;40.13;29.80;;;;;;;;;;5055312;28;20440;-68
2023/02/17 02:04:50;;;;;;;35.27;25.90;;;;;;;;;;5055056;28;20470;-68
2023/02/17 02:07:19;;;;;;;36.07;29.00;;;;;;;;;;5055268;28;20517;-68
2023/02/17 02:09:48;;;;;;;35.30;28.87;;;;;;;;;;5055376;28;20441;-68
2023/02/17 02:12:20;;;;;;;36.03;26.30;;;;;;;;;;5055130;28;20484;-69
2023/02/17 02:14:49;;;;;;;40.23;27.73;;;;;;;;;;5053769;28;20524;-68
2023/02/17 02:17:22;;;;;;;39.50;29.20;;;;;;;;;;5055023;28;20437;-68
2023/02/17 02:20:04;;;;;;;32.70;24.93;;;;;;;;;;5055237;28;20422;-68
2023/02/17 02:22:50;;;;;;;33.87;23.77;;;;;;;;;;5054643;28;20434;-68
2023/02/17 02:25:25;;;;;;;31.60;24.70;;;;;;;;;;5054880;28;20434;-69
2023/02/17 02:27:57;;;;;;;31.53;24.50;;;;;;;;;;5054984;28;20520;-68
2023/02/17 02:30:42;;;;;;;34.33;25.30;;;;;;;;;;5054763;28;20876;-69
2023/02/17 02:33:14;;;;;;;32.10;22.93;;;;;;;;;;5055020;28;20475;-69
2023/02/17 02:35:46;;;;;;;30.83;23.40;;;;;;;;;;5054519;28;20433;-69
2023/02/17 02:38:15;;;;;;;28.13;21.20;;;;;;;;;;5054743;28;20535;-73
2023/02/17 02:40:45;;;;;;;31.00;23.00;;;;;;;;;;5055035;28;20437;-69
2023/02/17 02:43:13;;;;;;;29.77;21.87;;;;;;;;;;5055181;28;20441;-68
2023/02/17 02:45:40;;;;;;;31.40;22.27;;;;;;;;;;5054479;28;20491;-69
2023/02/17 02:48:07;;;;;;;26.90;20.30;;;;;;;;;;5054516;28;20442;-69
2023/02/17 02:50:41;;;;;;;26.80;21.97;;;;;;;;;;5054508;28;20437;-68
2023/02/17 02:53:29;;;;;;;25.67;19.87;;;;;;;;;;5054523;28;20467;-68
2023/02/17 02:56:01;;;;;;;27.17;21.07;;;;;;;;;;5046769;28;20533;-69
2023/02/17 02:58:33;;;;;;;28.77;20.13;;;;;;;;;;5054732;28;20766;-68
2023/02/17 03:01:04;;;;;;;24.73;19.97;;;;;;;;;;5054577;28;20900;-68
2023/02/17 03:03:34;;;;;;;28.40;19.60;;;;;;;;;;5054008;28;20438;-68
2023/02/17 03:06:07;;;;;;;25.80;18.30;;;;;;;;;;5054141;28;21005;-69
2023/02/17 03:08:37;;;;;;;24.83;19.03;;;;;;;;;;5054603;28;20434;-69
2023/02/17 03:11:04;;;;;;;24.90;18.00;;;;;;;;;;5054536;28;20460;-69
2023/02/17 03:13:36;;;;;;;26.60;18.17;;;;;;;;;;5053893;28;20497;-68
2023/02/17 03:16:03;;;;;;;23.70;18.10;;;;;;;;;;5054305;28;20816;-69
2023/02/17 03:18:32;;;;;;;24.37;19.33;;;;;;;;;;5054094;28;20437;-69
2023/02/17 03:21:02;;;;;;;26.73;19.20;;;;;;;;;;5054019;28;20445;-68
2023/02/17 03:23:31;;;;;;;29.23;18.30;;;;;;;;;;5054103;28;20432;-68
2023/02/17 03:25:58;;;;;;;21.03;18.07;;;;;;;;;;5053654;28;20438;-69
2023/02/17 03:28:25;;;;;;;24.17;17.70;;;;;;;;;;5053782;28;20494;-68
2023/02/17 03:30:53;;;;;;;22.37;17.67;;;;;;;;;;5053815;28;20441;-68
2023/02/17 03:33:20;;;;;;;20.83;17.30;;;;;;;;;;5053669;28;20473;-69
2023/02/17 03:35:47;;;;;;;23.33;17.40;;;;;;;;;;5054119;28;20445;-68
2023/02/17 03:38:14;;;;;;;24.57;18.27;;;;;;;;;;5053558;28;20436;-68
2023/02/17 03:40:43;;;;;;;24.23;18.80;;;;;;;;;;5053369;28;20426;-68
2023/02/17 03:43:10;;;;;;;24.03;18.03;;;;;;;;;;5053457;28;20446;-68
2023/02/17 03:45:37;;;;;;;21.43;17.30;;;;;;;;;;5053143;28;20438;-68
2023/02/17 03:48:04;;;;;;;20.57;17.17;;;;;;;;;;5053530;28;20456;-68
2023/02/17 03:50:32;;;;;;;20.77;17.47;;;;;;;;;;5053734;28;20508;-68
2023/02/17 03:52:59;;;;;;;23.20;18.33;;;;;;;;;;5053227;28;20473;-68
2023/02/17 03:55:26;;;;;;;28.17;18.80;;;;;;;;;;5053425;28;20533;-68
2023/02/17 03:57:54;;;;;;;22.40;17.33;;;;;;;;;;5052810;28;20433;-68
2023/02/17 04:00:22;;;;;;;19.63;17.27;;;;;;;;;;5053152;28;20435;-68
2023/02/17 04:02:49;;;;;;;22.20;17.40;;;;;;;;;;5053644;28;20525;-68
2023/02/17 04:05:16;;;;;;;19.20;16.47;;;;;;;;;;5053554;28;20461;-68
2023/02/17 04:07:43;;;;;;;21.20;16.20;;;;;;;;;;5053355;28;20437;-68
2023/02/17 04:10:11;;;;;;;19.50;17.13;;;;;;;;;;5052764;28;20438;-68
2023/02/17 04:12:38;;;;;;;19.73;17.23;;;;;;;;;;5053080;28;20811;-68
2023/02/17 04:15:07;;;;;;;22.57;16.87;;;;;;;;;;5052988;28;20786;-68
2023/02/17 04:17:36;;;;;;;20.60;17.10;;;;;;;;;;5053044;28;20774;-68
2023/02/17 04:20:03;;;;;;;18.05;14.60;;;;;;;;;;5053125;28;20441;-68
2023/02/17 04:22:30;;;;;;;20.50;15.83;;;;;;;;;;5052878;28;20348;-68
2023/02/17 04:24:57;;;;;;;19.13;16.93;;;;;;;;;;5053063;28;20919;-68
2023/02/17 04:27:25;;;;;;;16.47;14.20;;;;;;;;;;5052997;28;20525;-68
2023/02/17 04:29:52;;;;;;;21.60;17.53;;;;;;;;;;5053107;28;20445;-68
2023/02/17 04:32:21;;;;;;;17.97;15.17;;;;;;;;;;5052704;28;20785;-68
2023/02/17 04:34:48;;;;;;;21.57;16.70;;;;;;;;;;5052859;28;20449;-68
2023/02/17 04:37:15;;;;;;;19.30;16.23;;;;;;;;;;5052107;28;20444;-67
2023/02/17 04:39:42;;;;;;;20.60;17.17;;;;;;;;;;5052734;28;20438;-68
2023/02/17 04:42:09;;;;;;;19.67;16.30;;;;;;;;;;5052582;28;20465;-69
2023/02/17 04:44:37;;;;;;;17.47;15.43;;;;;;;;;;5052678;28;20436;-68
2023/02/17 04:47:04;;;;;;;17.87;14.93;;;;;;;;;;5052808;28;20429;-68
2023/02/17 04:49:32;;;;;;;15.80;13.10;;;;;;;;;;5052386;28;20441;-67
2023/02/17 04:51:59;;;;;;;18.20;14.40;;;;;;;;;;5056915;28;20434;-68
2023/02/17 04:54:27;;;;;;;18.80;13.17;;;;;;;;;;5051143;28;20484;-68
2023/02/17 04:56:54;;;;;;;19.90;14.23;;;;;;;;;;5052408;28;20434;-68
2023/02/17 04:59:21;;;;;;;17.97;13.30;;;;;;;;;;5052441;28;20437;-68
2023/02/17 05:01:48;;;;;;;17.13;13.03;;;;;;;;;;5052184;28;20432;-68
2023/02/17 05:04:15;;;;;;;16.30;13.33;;;;;;;;;;5051942;28;20480;-68
2023/02/17 05:06:44;;;;;;;19.53;13.70;;;;;;;;;;5052304;28;20430;-69
2023/02/17 05:09:11;;;;;;;18.80;13.00;;;;;;;;;;5052213;28;20436;-67
2023/02/17 05:11:38;;;;;;;14.60;12.50;;;;;;;;;;5052374;28;20471;-68
2023/02/17 05:14:05;;;;;;;19.00;11.47;;;;;;;;;;5052170;28;20488;-68
2023/02/17 05:16:32;;;;;;;14.83;12.23;;;;;;;;;;5052415;28;20435;-68
2023/02/17 05:19:00;;;;;;;13.00;10.63;;;;;;;;;;5052135;28;20433;-66
2023/02/17 05:21:27;;;;;;;16.63;12.20;;;;;;;;;;5052074;28;20436;-72
2023/02/17 05:23:55;;;;;;;14.93;12.63;;;;;;;;;;5051629;28;20446;-74
2023/02/17 05:26:23;;;;;;;14.10;11.93;;;;;;;;;;5051640;28;20441;-66
2023/02/17 05:28:50;;;;;;;14.90;12.40;;;;;;;;;;5052196;28;20434;-66
2023/02/17 05:31:17;;;;;;;14.00;11.60;;;;;;;;;;5052261;28;20755;-66
2023/02/17 05:33:44;;;;;;;12.37;11.07;;;;;;;;;;5051791;28;20500;-66
2023/02/17 05:36:12;;;;;;;11.87;9.63;;;;;;;;;;5051607;28;20444;-66
2023/02/17 05:38:39;;;;;;;11.20;10.07;;;;;;;;;;5051428;28;20435;-66
2023/02/17 05:41:08;;;;;;;10.20;9.17;;;;;;;;;;5051643;28;20434;-66
2023/02/17 05:43:35;;;;;;;9.47;8.17;;;;;;;;;;5051087;28;20915;-65
2023/02/17 05:46:03;;;;;;;11.00;9.60;;;;;;;;;;5052058;28;20554;-66
2023/02/17 05:48:30;;;;;;;9.90;8.70;;;;;;;;;;5052396;28;20443;-67
2023/02/17 05:50:57;;;;;;;11.00;9.50;;;;;;;;;;5054935;28;20438;-66
2023/02/17 05:53:24;;;;;;;12.03;10.07;;;;;;;;;;5055379;28;20474;-67
2023/02/17 05:55:51;;;;;;;10.90;9.20;;;;;;;;;;5055017;28;20931;-66
2023/02/17 05:58:20;;;;;;;10.87;9.27;;;;;;;;;;5055019;28;20940;-66
2023/02/17 06:00:47;;;;;;;11.37;9.10;;;;;;;;;;5055148;28;20437;-66
2023/02/17 06:03:14;;;;;;;11.57;10.37;;;;;;;;;;5055283;28;20464;-66
2023/02/17 06:05:42;;;;;;;11.27;10.10;;;;;;;;;;5055399;28;20467;-66
2023/02/17 06:08:09;;;;;;;11.50;10.40;;;;;;;;;;5055382;28;20433;-65
2023/02/17 06:10:36;;;;;;;12.83;10.70;;;;;;;;;;5054621;28;20439;-66
2023/02/17 06:13:03;;;;;;;9.97;8.97;;;;;;;;;;5055568;28;20475;-66
2023/02/17 06:15:38;;;;;;;8.83;7.70;;;;;;;;;;5054993;28;20429;-66
2023/02/17 06:18:05;;;;;;;11.50;8.90;;;;;;;;;;5055503;28;20429;-67
2023/02/17 06:20:32;;;;;;;11.17;8.93;;;;;;;;;;5054779;28;20513;-66
2023/02/17 06:23:00;;;;;;;10.63;9.20;;;;;;;;;;5054741;28;20468;-66
2023/02/17 06:25:27;;;;;;;12.07;9.37;;;;;;;;;;5054682;28;20449;-66
2023/02/17 06:27:54;;;;;;;11.10;10.00;;;;;;;;;;5054578;28;20447;-66
2023/02/17 06:30:22;;;;;;;13.50;10.00;;;;;;;;;;5054672;28;20440;-66
2023/02/17 06:32:50;;;;;;;12.90;10.20;;;;;;;;;;5054711;28;20487;-66
2023/02/17 06:35:18;;;;;;;14.37;9.93;;;;;;;;;;5055078;28;20450;-66
2023/02/17 06:37:45;;;;;;;10.33;8.93;;;;;;;;;;5054298;28;20441;-66
2023/02/17 06:40:12;;;;;;;13.70;11.30;;;;;;;;;;5054872;28;20429;-66
2023/02/17 06:42:39;;;;;;;9.80;8.50;;;;;;;;;;5054930;28;20439;-66
2023/02/17 06:45:07;;;;;;;13.37;11.27;;;;;;;;;;5054348;28;20446;-66
2023/02/17 06:47:35;;;;;;;12.83;11.43;;;;;;;;;;5054525;28;20982;-66
2023/02/17 06:50:03;;;;;;;12.83;11.53;;;;;;;;;;5054195;28;20446;-66
2023/02/17 06:52:30;;;;;;;13.50;12.10;;;;;;;;;;5054545;28;20430;-66
2023/02/17 06:54:57;;;;;;;11.97;10.83;;;;;;;;;;5054195;28;20571;-66
2023/02/17 06:57:25;;;;;;;12.20;10.93;;;;;;;;;;5054385;28;20446;-66
2023/02/17 06:59:52;;;;;;;14.23;11.47;;;;;;;;;;5053843;28;20438;-66
2023/02/17 07:02:19;;;;;;;12.60;11.27;;;;;;;;;;5054613;28;20438;-66
2023/02/17 07:04:46;;;;;;;11.00;9.90;;;;;;;;;;5054300;28;20832;-66
2023/02/17 07:07:15;;;;;;;12.20;10.10;;;;;;;;;;5054086;28;20922;-66
2023/02/17 07:09:43;;;;;;;13.10;11.53;;;;;;;;;;5053551;28;20943;-66
2023/02/17 07:12:10;;;;;;;13.83;10.60;;;;;;;;;;5053901;28;20449;-66
2023/02/17 07:14:37;;;;;;;13.33;11.00;;;;;;;;;;5053896;28;20481;-66
2023/02/17 07:17:05;;;;;;;16.37;13.27;;;;;;;;;;5054080;28;20462;-66
2023/02/17 07:19:33;;;;;;;16.20;12.90;;;;;;;;;;5053703;28;20434;-67
2023/02/17 07:22:01;;;;;;;15.33;13.73;;;;;;;;;;5053618;28;20445;-67
2023/02/17 07:24:29;;;;;;;16.23;14.53;;;;;;;;;;5054281;28;20445;-66
2023/02/17 07:26:57;;;;;;;15.10;13.33;;;;;;;;;;5053809;28;20438;-66
2023/02/17 07:29:24;;;;;;;15.77;14.20;;;;;;;;;;5053982;28;20434;-66
2023/02/17 07:31:51;;;;;;;17.37;14.40;;;;;;;;;;5053483;28;20846;-66
2023/02/17 07:34:19;;;;;;;21.60;15.60;;;;;;;;;;5053330;28;20481;-66
2023/02/17 07:36:46;;;;;;;14.90;12.47;;;;;;;;;;5053644;28;20445;-66
2023/02/17 07:39:13;;;;;;;18.83;13.77;;;;;;;;;;5053791;28;20434;-66
2023/02/17 07:41:42;;;;;;;14.17;11.93;;;;;;;;;;5053771;28;20429;-66
2023/02/17 07:44:09;;;;;;;13.83;11.30;;;;;;;;;;5053555;28;20469;-66
2023/02/17 07:46:38;;;;;;;13.00;10.50;;;;;;;;;;5053321;28;20443;-66
2023/02/17 07:49:05;;;;;;;13.77;10.13;;;;;;;;;;5053128;28;20903;-66
2023/02/17 07:51:32;;;;;;;13.17;10.00;;;;;;;;;;5053594;28;20457;-66
2023/02/17 07:54:01;;;;;;;11.67;9.47;;;;;;;;;;5053527;28;20476;-66
2023/02/17 07:56:29;;;;;;;13.10;10.67;;;;;;;;;;5053284;28;20446;-66
2023/02/17 07:58:57;;;;;;;10.60;9.37;;;;;;;;;;5052843;28;20441;-67
2023/02/17 08:01:25;;;;;;;13.63;10.57;;;;;;;;;;5052916;28;20438;-66
2023/02/17 08:03:52;;;;;;;11.90;9.40;;;;;;;;;;5052800;28;20440;-66
2023/02/17 08:06:20;;;;;;;12.17;11.00;;;;;;;;;;5052859;28;20419;-66
2023/02/17 08:14:21;;;;;;;15.80;10.53;;;;;;;;;;5052970;28;20457;-66
2023/02/17 08:16:48;;;;;;;14.30;10.13;;;;;;;;;;5052977;28;20896;-66
2023/02/17 08:19:15;;;;;;;11.93;10.00;;;;;;;;;;5052990;28;20446;-66
2023/02/17 08:21:42;;;;;;;18.97;11.63;;;;;;;;;;5053087;28;20453;-66
2023/02/17 08:24:09;;;;;;;11.83;8.60;;;;;;;;;;5053032;28;20441;-66
2023/02/17 08:26:37;;;;;;;13.27;10.17;;;;;;;;;;5052690;28;20430;-66
2023/02/17 08:29:04;;;;;;;14.67;11.00;;;;;;;;;;5052891;28;20740;-66
2023/02/17 08:31:34;;;;;;;14.17;10.10;;;;;;;;;;5053109;28;20430;-66
2023/02/17 08:34:01;;;;;;;13.20;10.63;;;;;;;;;;5052935;28;20483;-66
2023/02/17 08:36:29;;;;;;;13.80;10.33;;;;;;;;;;5052586;28;20430;-66
2023/02/17 08:38:56;;;;;;;16.83;9.80;;;;;;;;;;5052361;28;20914;-66
2023/02/17 08:41:24;;;;;;;11.67;8.17;;;;;;;;;;5052612;28;20434;-66
2023/02/17 08:43:52;;;;;;;13.07;8.20;;;;;;;;;;5052756;28;20782;-66
2023/02/17 08:46:19;;;;;;;18.27;11.50;;;;;;;;;;5052523;28;20437;-66
2023/02/17 08:48:48;;;;;;;13.73;10.70;;;;;;;;;;5052555;28;20454;-66
2023/02/17 08:51:16;;;;;;;14.80;10.53;;;;;;;;;;5052518;28;20773;-66
2023/02/17 08:53:44;;;;;;;18.93;10.67;;;;;;;;;;5052702;28;20911;-67
2023/02/17 08:56:11;;;;;;;11.33;9.73;;;;;;;;;;5052526;28;20564;-66
2023/02/17 08:58:38;;;;;;;12.57;8.53;;;;;;;;;;5052210;28;20442;-66
2023/02/17 09:01:06;;;;;;;11.63;9.53;;;;;;;;;;5051613;28;20935;-66
2023/02/17 09:03:34;;;;;;;17.30;11.77;;;;;;;;;;5052463;28;20443;-66
2023/02/17 09:06:02;;;;;;;17.70;10.80;;;;;;;;;;5053046;28;20477;-68
2023/02/17 09:08:29;;;;;;;15.20;9.63;;;;;;;;;;5052469;28;20434;-66
2023/02/17 09:10:57;;;;;;;13.63;11.30;;;;;;;;;;5052508;28;20746;-66
2023/02/17 09:13:25;;;;;;;13.63;9.90;;;;;;;;;;5052380;28;20485;-66
2023/02/17 09:15:53;;;;;;;13.00;9.80;;;;;;;;;;5052085;28;20472;-66
2023/02/17 09:18:20;;;;;;;14.43;11.03;;;;;;;;;;5052420;28;20423;-66
2023/02/17 09:20:48;;;;;;;13.60;9.53;;;;;;;;;;5052576;28;20943;-66
2023/02/17 09:23:16;;;;;;;12.97;9.37;;;;;;;;;;5052340;28;20443;-66
2023/02/17 09:25:44;;;;;;;15.07;10.13;;;;;;;;;;5056585;28;20441;-66
2023/02/17 09:28:12;;;;;;;16.93;10.00;;;;;;;;;;5055929;28;20447;-65
2023/02/17 09:30:39;;;;;;;12.27;9.23;;;;;;;;;;5056795;28;20434;-66
2023/02/17 09:33:07;;;;;;;15.63;10.30;;;;;;;;;;5055942;28;20438;-67
2023/02/17 09:35:34;;;;;;;10.77;9.67;;;;;;;;;;5056228;28;20518;-66
2023/02/17 09:38:02;;;;;;;12.40;8.23;;;;;;;;;;5055722;28;20439;-66
2023/02/17 09:40:37;;;;;;;13.00;10.10;;;;;;;;;;5055903;28;20445;-66
2023/02/17 09:43:04;;;;;;;13.60;10.50;;;;;;;;;;5055511;28;20421;-66
2023/02/17 09:45:35;;;;;;;10.80;8.17;;;;;;;;;;5055897;28;20471;-66
2023/02/17 09:48:04;;;;;;;11.43;8.50;;;;;;;;;;5055449;28;20429;-66
2023/02/17 09:50:35;;;;;;;11.70;9.27;;;;;;;;;;5055295;28;20443;-66
2023/02/17 09:53:07;;;;;;;12.27;8.73;;;;;;;;;;5055840;28;20897;-66
2023/02/17 09:55:36;;;;;;;10.33;8.00;;;;;;;;;;5055555;28;20968;-66
2023/02/17 09:58:05;;;;;;;17.60;9.67;;;;;;;;;;5055488;28;20441;-66
2023/02/17 10:00:34;;;;;;;9.83;8.73;;;;;;;;;;5055349;28;20483;-66
2023/02/17 10:03:05;;;;;;;12.27;9.83;;;;;;;;;;5055478;28;20432;-66
2023/02/17 10:05:37;;;;;;;14.60;10.10;;;;;;;;;;5055223;28;20478;-66
2023/02/17 10:08:08;;;;;;;11.27;8.03;;;;;;;;;;5055288;28;20911;-66
2023/02/17 10:10:40;;;;;;;11.67;8.40;;;;;;;;;;5056194;28;20527;-67
2023/02/17 10:13:08;;;;;;;10.50;7.20;;;;;;;;;;5055031;28;20442;-66
2023/02/17 10:15:39;;;;;;;9.83;8.03;;;;;;;;;;5055103;28;20473;-66
2023/02/17 10:18:11;;;;;;;11.17;9.27;;;;;;;;;;5055012;28;20907;-67
2023/02/17 10:20:40;;;;;;;11.90;8.80;;;;;;;;;;5055636;28;20476;-66
2023/02/17 10:23:12;;;;;;;8.43;6.63;;;;;;;;;;5054807;28;20447;-66
2023/02/17 10:25:51;;;;;;;12.37;8.03;;;;;;;;;;5054859;28;20424;-66
2023/02/17 10:28:22;;;;;;;10.57;7.87;;;;;;;;;;5054678;28;20419;-66
2023/02/17 10:30:53;;;;;;;9.13;8.23;;;;;;;;;;5054712;28;20422;-66
2023/02/17 10:33:24;;;;;;;13.40;8.13;;;;;;;;;;5054932;28;20432;-66
2023/02/17 10:35:52;;;;;;;8.53;6.40;;;;;;;;;;5054283;28;20467;-66
2023/02/17 10:38:19;;;;;;;8.37;7.47;;;;;;;;;;5054734;28;20429;-66
2023/02/17 10:40:49;;;;;;;8.63;7.00;;;;;;;;;;5054764;28;20777;-66
2023/02/17 10:43:21;;;;;;;10.03;7.30;;;;;;;;;;5054995;28;20437;-66
2023/02/17 10:45:50;;;;;;;11.93;8.07;;;;;;;;;;5054695;28;20444;-66
2023/02/17 10:48:19;;;;;;;8.40;7.37;;;;;;;;;;5054579;28;20438;-67
2023/02/17 10:50:47;;;;;;;7.27;5.50;;;;;;;;;;5054494;28;20433;-66
2023/02/17 10:53:16;;;;;;;8.20;7.00;;;;;;;;;;5054059;28;20458;-66
2023/02/17 10:55:49;;;;;;;6.40;5.80;;;;;;;;;;5054783;28;20479;-66
2023/02/17 10:58:20;;;;;;;7.30;6.50;;;;;;;;;;5054000;28;20883;-66
2023/02/17 11:00:48;;;;;;;9.30;8.20;;;;;;;;;;5054765;28;20505;-66
2023/02/17 11:03:22;;;;;;;7.67;6.77;;;;;;;;;;5054390;28;20447;-67
2023/02/17 11:05:53;;;;;;;7.27;6.43;;;;;;;;;;5055057;28;20489;-66
2023/02/17 11:08:26;;;;;;;6.87;5.60;;;;;;;;;;5054115;28;20420;-66
2023/02/17 11:11:00;;;;;;;8.80;6.97;;;;;;;;;;5054063;28;20426;-66
2023/02/17 11:13:31;;;;;;;7.40;5.03;;;;;;;;;;5053769;28;20485;-65
2023/02/17 11:15:59;;;;;;;6.97;6.27;;;;;;;;;;5054546;28;20468;-66
2023/02/17 11:18:28;;;;;;;6.70;6.00;;;;;;;;;;5054461;28;20472;-66
2023/02/17 11:21:01;;;;;;;7.17;5.47;;;;;;;;;;5054510;28;20442;-66
2023/02/17 11:23:28;;;;;;;9.03;6.40;;;;;;;;;;5053696;28;20896;-67
2023/02/17 11:25:57;;;;;;;9.13;6.60;;;;;;;;;;5053889;28;20450;-66
2023/02/17 11:28:25;;;;;;;7.97;6.50;;;;;;;;;;5053946;28;20442;-66
2023/02/17 11:30:55;;;;;;;6.67;5.97;;;;;;;;;;5053599;28;20452;-66
2023/02/17 11:33:23;;;;;;;9.90;7.07;;;;;;;;;;5053849;28;20441;-66
2023/02/17 11:35:53;;;;;;;8.83;6.37;;;;;;;;;;5053723;28;20479;-66
2023/02/17 11:38:21;;;;;;;9.63;6.80;;;;;;;;;;5053553;28;20431;-67
2023/02/17 11:40:55;;;;;;;7.50;6.47;;;;;;;;;;5053828;28;20441;-66
2023/02/17 11:43:23;;;;;;;6.37;5.40;;;;;;;;;;5053134;28;20445;-66
2023/02/17 11:45:54;;;;;;;5.73;4.70;;;;;;;;;;5053649;28;20442;-66
2023/02/17 11:48:32;;;;;;;7.30;6.60;;;;;;;;;;5052991;28;20424;-66
2023/02/17 11:51:03;;;;;;;6.70;5.93;;;;;;;;;;5053758;28;20437;-66
2023/02/17 11:53:40;;;;;;;9.20;6.10;;;;;;;;;;5053154;28;20418;-66
2023/02/17 11:56:14;;;;;;;8.33;5.63;;;;;;;;;;5053563;28;20477;-67
2023/02/17 11:58:55;;;;;;;6.97;6.27;;;;;;;;;;5053306;28;20427;-66
2023/02/17 12:01:30;;;;;;;8.13;7.10;;;;;;;;;;5053744;28;20427;-66
2023/02/17 12:04:10;;;;;;;5.63;4.87;;;;;;;;;;5053091;28;20799;-66
2023/02/17 12:06:42;;;;;;;6.00;5.40;;;;;;;;;;5053314;28;20568;-66
2023/02/17 12:09:16;;;;;;;6.47;5.63;;;;;;;;;;5052698;28;20508;-66
2023/02/17 12:11:48;;;;;;;8.00;4.87;;;;;;;;;;5053223;28;20829;-66
2023/02/17 12:14:22;;;;;;;6.40;5.50;;;;;;;;;;5053283;28;20414;-66
2023/02/17 12:16:52;;;;;;;6.50;5.80;;;;;;;;;;5052706;28;20468;-67
2023/02/17 12:19:34;;;;;;;6.13;5.53;;;;;;;;;;5052865;28;20440;-66
2023/02/17 12:22:11;;;;;;;5.63;4.70;;;;;;;;;;5049485;28;20446;-66
2023/02/17 12:24:48;;;;;;;7.93;7.00;;;;;;;;;;5052677;28;20512;-66
2023/02/17 12:27:24;;;;;;;6.80;6.10;;;;;;;;;;5052927;28;20956;-66
2023/02/17 12:30:03;;;;;;;6.03;5.50;;;;;;;;;;5052711;28;20502;-66
2023/02/17 12:32:35;;;;;;;6.87;5.77;;;;;;;;;;5052634;28;20476;-66
2023/02/17 12:35:05;;;;;;;7.33;6.33;;;;;;;;;;5053068;28;20443;-66
2023/02/17 12:37:35;;;;;;;8.40;7.10;;;;;;;;;;5053050;28;20442;-66
2023/02/17 12:40:03;;;;;;;9.00;6.70;;;;;;;;;;5052636;28;20478;-67
2023/02/17 12:42:32;;;;;;;9.57;7.70;;;;;;;;;;5052677;28;20841;-66
2023/02/17 12:45:03;;;;;;;6.40;5.90;;;;;;;;;;5052801;28;20462;-66
2023/02/17 12:47:31;;;;;;;8.57;7.40;;;;;;;;;;5052644;28;20917;-66
2023/02/17 12:50:01;;;;;;;7.47;6.77;;;;;;;;;;5052595;28;20445;-66
2023/02/17 12:52:29;;;;;;;8.80;7.40;;;;;;;;;;5052499;28;20420;-66
2023/02/17 12:54:59;;;;;;;9.27;8.37;;;;;;;;;;5052621;28;20439;-66
2023/02/17 12:57:28;;;;;;;8.70;7.90;;;;;;;;;;5052789;28;20459;-66
2023/02/17 12:59:57;;;;;;;7.70;6.70;;;;;;;;;;5055713;28;20935;-66
2023/02/17 13:02:25;;;;;;;9.47;7.60;;;;;;;;;;5056343;28;20445;-66
2023/02/17 13:04:54;;;;;;;9.00;8.10;;;;;;;;;;5056447;28;20471;-66
2023/02/17 13:07:26;;;;;;;11.33;7.43;;;;;;;;;;5056398;28;20537;-66
2023/02/17 13:09:55;;;;;;;8.67;7.87;;;;;;;;;;5056205;28;20902;-66
2023/02/17 13:12:39;;;;;;;9.10;7.63;;;;;;;;;;5056489;28;20435;-66
2023/02/17 13:15:07;;;;;;;7.70;6.93;;;;;;;;;;5056502;28;20487;-66
2023/02/17 13:17:37;;;;;;;11.50;8.90;;;;;;;;;;5056115;28;20438;-66
2023/02/17 13:20:25;;;;;;;10.70;8.90;;;;;;;;;;5056164;28;20434;-66
2023/02/17 13:23:03;;;;;;;10.07;8.97;;;;;;;;;;5056474;28;20512;-66
2023/02/17 13:25:31;;;;;;;9.63;8.70;;;;;;;;;;5055702;28;20897;-67
2023/02/17 13:28:01;;;;;;;10.10;9.00;;;;;;;;;;5056026;28;20944;-65
2023/02/17 13:30:30;;;;;;;11.00;8.10;;;;;;;;;;5056203;28;20439;-65
2023/02/17 13:33:05;;;;;;;12.03;10.30;;;;;;;;;;5055714;28;20515;-67
2023/02/17 13:35:34;;;;;;;13.63;11.20;;;;;;;;;;5055858;28;20934;-67
2023/02/17 13:38:01;;;;;;;11.67;10.43;;;;;;;;;;5056399;28;20436;-67
2023/02/17 13:40:37;;;;;;;15.20;12.50;;;;;;;;;;5055950;28;20457;-67
2023/02/17 13:43:19;;;;;;;14.20;11.73;;;;;;;;;;5055524;28;20439;-67
2023/02/17 13:45:49;;;;;;;18.63;13.63;;;;;;;;;;5056255;28;20506;-67
2023/02/17 13:48:23;;;;;;;19.73;13.03;;;;;;;;;;5055860;28;20845;-67
2023/02/17 13:50:52;;;;;;;13.93;12.07;;;;;;;;;;5056015;28;20415;-67
2023/02/17 13:53:24;;;;;;;18.20;13.30;;;;;;;;;;5055799;28;20477;-67
2023/02/17 13:55:51;;;;;;;18.03;12.57;;;;;;;;;;5055538;28;20480;-67
2023/02/17 13:58:24;;;;;;;17.43;14.30;;;;;;;;;;5055542;28;20458;-67
2023/02/17 14:00:51;;;;;;;17.53;13.70;;;;;;;;;;5055860;28;20436;-67
2023/02/17 14:03:21;;;;;;;17.80;14.10;;;;;;;;;;5055434;28;20437;-68
2023/02/17 14:05:49;;;;;;;15.83;13.23;;;;;;;;;;5055166;28;20472;-68
2023/02/17 14:08:19;;;;;;;19.33;13.90;;;;;;;;;;5055580;28;20438;-68
2023/02/17 14:10:46;;;;;;;18.23;15.77;;;;;;;;;;5056882;28;20446;-68
2023/02/17 14:13:14;;;;;;;15.97;12.73;;;;;;;;;;5068506;28;20920;-68
2023/02/17 14:15:51;;;;;;;18.93;13.70;;;;;;;;;;5054766;28;20963;-68
2023/02/17 14:18:28;;;;;;;13.20;10.80;;;;;;;;;;5055210;28;20512;-67
2023/02/17 14:21:00;;;;;;;15.30;12.37;;;;;;;;;;5054717;28;20423;-68
2023/02/17 14:23:27;;;;;;;17.80;12.80;;;;;;;;;;5055048;28;20421;-68
2023/02/17 14:25:55;;;;;;;14.60;12.50;;;;;;;;;;5055324;28;20445;-68
2023/02/17 14:28:23;;;;;;;14.87;11.50;;;;;;;;;;5055139;28;20430;-67
2023/02/17 14:30:52;;;;;;;10.50;8.27;;;;;;;;;;5054422;28;20441;-68
2023/02/17 14:33:21;;;;;;;13.73;9.63;;;;;;;;;;5054552;28;20438;-66
2023/02/17 14:35:52;;;;;;;11.57;9.43;;;;;;;;;;5053956;28;20936;-68
2023/02/17 14:38:21;;;;;;;10.07;6.27;;;;;;;;;;5054167;28;20522;-67
2023/02/17 14:40:48;;;;;;;6.90;6.10;;;;;;;;;;5053908;28;20939;-68